createdAt,value
2018-11-05T00:02:14.393Z,77.55
2018-11-05T00:04:43.222Z,77.32
2018-11-05T00:07:11.946Z,77.31
2018-11-05T00:09:40.885Z,77.32
2018-11-05T00:12:09.629Z,77.47
2018-11-05T00:14:38.329Z,77.65
2018-11-05T00:17:07.045Z,77.64
2018-11-05T00:19:35.743Z,77.78
2018-11-05T00:22:04.641Z,78.21
2018-11-05T00:24:33.463Z,78.23
2018-11-05T00:27:02.163Z,78.12
2018-11-05T00:29:31.113Z,78.19
2018-11-05T00:31:59.831Z,77.92
2018-11-05T00:34:28.682Z,78.25
2018-11-05T00:36:57.424Z,78.38
2018-11-05T00:39:26.142Z,78.59
2018-11-05T00:41:54.854Z,78.79
2018-11-05T00:44:23.563Z,79.10
2018-11-05T00:46:52.284Z,79.46
2018-11-05T00:49:20.993Z,79.59
2018-11-05T00:51:49.713Z,79.84
2018-11-05T00:54:18.412Z,79.33
2018-11-05T00:56:47.118Z,79.78
2018-11-05T00:59:16.021Z,79.25
2018-11-05T01:01:44.758Z,79.32
2018-11-05T01:07:10.344Z,78.76
2018-11-05T01:09:39.065Z,78.72
2018-11-05T01:12:07.791Z,78.56
2018-11-05T01:14:36.523Z,78.38
2018-11-05T01:17:05.816Z,77.98
2018-11-05T01:19:34.541Z,78.01
2018-11-05T01:22:03.312Z,78.00
2018-11-05T01:24:32.037Z,78.53
2018-11-05T01:27:01.010Z,78.40
2018-11-05T01:29:29.708Z,78.31
2018-11-05T01:31:58.447Z,77.96
2018-11-05T01:34:27.160Z,77.72
2018-11-05T01:36:55.912Z,77.88
2018-11-05T01:39:25.024Z,77.62
2018-11-05T01:41:53.751Z,77.64
2018-11-05T01:44:22.592Z,77.83
2018-11-05T01:46:51.317Z,77.72
2018-11-05T01:49:20.040Z,77.40
2018-11-05T01:51:48.749Z,77.60
2018-11-05T01:54:17.452Z,77.79
2018-11-05T01:56:46.160Z,78.10
2018-11-05T01:59:14.873Z,78.05
2018-11-05T02:01:43.599Z,78.32
2018-11-05T02:04:12.304Z,78.06
2018-11-05T02:06:41.175Z,78.14
2018-11-05T02:09:10.472Z,78.30
2018-11-05T02:11:39.340Z,78.16
2018-11-05T02:14:08.168Z,78.28
2018-11-05T02:16:37.015Z,78.43
2018-11-05T02:19:06.155Z,78.45
2018-11-05T02:21:35.036Z,78.50
2018-11-05T02:24:03.828Z,78.37
2018-11-05T02:26:32.502Z,78.55
2018-11-05T02:29:01.205Z,78.82
2018-11-05T02:31:30.052Z,79.16
2018-11-05T02:33:59.245Z,79.43
2018-11-05T02:36:28.340Z,79.09
2018-11-05T02:38:57.444Z,79.07
2018-11-05T02:41:26.167Z,79.83
2018-11-05T02:43:54.857Z,79.72
2018-11-05T02:46:23.576Z,79.17
2018-11-05T02:48:52.279Z,79.44
2018-11-05T02:51:21.187Z,79.48
2018-11-05T02:53:49.905Z,79.35
2018-11-05T02:56:18.615Z,79.54
2018-11-05T02:58:47.326Z,79.34
2018-11-05T03:01:16.041Z,79.28
2018-11-05T03:03:44.754Z,79.47
2018-11-05T03:06:13.630Z,79.58
2018-11-05T03:08:42.476Z,79.33
2018-11-05T03:11:11.304Z,79.72
2018-11-05T03:13:40.040Z,79.86
2018-11-05T03:16:08.983Z,79.95
2018-11-05T03:18:37.708Z,79.67
2018-11-05T03:21:06.640Z,80.08
2018-11-05T03:23:35.370Z,80.31
2018-11-05T03:26:04.580Z,80.39
2018-11-05T03:28:33.283Z,80.34
2018-11-05T03:31:02.174Z,80.69
2018-11-05T03:33:30.885Z,80.53
2018-11-05T03:35:59.611Z,80.38
2018-11-05T03:38:28.301Z,80.70
2018-11-05T03:40:57.003Z,80.31
2018-11-05T03:43:25.925Z,80.47
2018-11-05T03:45:54.636Z,80.52
2018-11-05T03:48:23.336Z,80.41
2018-11-05T03:50:52.392Z,80.52
2018-11-05T03:53:21.116Z,80.39
2018-11-05T03:55:49.925Z,80.28
2018-11-05T03:58:18.579Z,79.91
2018-11-05T04:00:47.328Z,79.86
2018-11-05T04:03:16.067Z,79.88
2018-11-05T04:05:44.826Z,80.02
2018-11-05T04:08:13.525Z,80.01
2018-11-05T04:10:42.500Z,79.68
2018-11-05T04:13:11.273Z,79.89
2018-11-05T04:15:40.063Z,79.79
2018-11-05T04:18:08.697Z,80.29
2018-11-05T04:20:37.407Z,80.29
2018-11-05T04:23:06.126Z,80.88
2018-11-05T04:25:35.101Z,80.53
2018-11-05T04:28:04.931Z,81.10
2018-11-05T04:30:33.827Z,81.26
2018-11-05T04:33:02.532Z,81.37
2018-11-05T04:35:31.253Z,81.93
2018-11-05T04:38:00.036Z,81.62
2018-11-05T04:40:28.744Z,82.12
2018-11-05T04:42:57.456Z,82.04
2018-11-05T04:45:26.176Z,82.11
2018-11-05T04:47:54.898Z,82.00
2018-11-05T04:50:23.640Z,82.02
2018-11-05T04:52:52.592Z,81.98
2018-11-05T04:55:21.313Z,81.41
2018-11-05T04:57:56.318Z,82.04
2018-11-05T05:00:25.072Z,81.84
2018-11-05T05:02:53.775Z,81.84
2018-11-05T05:05:22.482Z,82.42
2018-11-05T05:07:51.756Z,81.76
2018-11-05T05:10:20.499Z,81.83
2018-11-05T05:12:49.208Z,81.98
2018-11-05T05:15:17.933Z,81.91
2018-11-05T05:17:46.804Z,82.21
2018-11-05T05:20:16.619Z,81.60
2018-11-05T05:22:45.723Z,81.62
2018-11-05T05:25:14.486Z,81.59
2018-11-05T05:27:43.188Z,81.34
2018-11-05T05:30:15.130Z,81.34
2018-11-05T05:32:44.426Z,81.09
2018-11-05T05:35:13.145Z,81.29
2018-11-05T05:37:42.435Z,80.83
2018-11-05T05:40:11.169Z,81.45
2018-11-05T05:42:40.604Z,79.12
2018-11-05T05:45:10.589Z,79.31
2018-11-05T05:47:39.396Z,79.52
2018-11-05T05:50:10.837Z,79.83
2018-11-05T05:52:39.760Z,79.59
2018-11-05T05:55:08.848Z,79.52
2018-11-05T05:57:37.561Z,80.12
2018-11-05T06:00:08.773Z,79.72
2018-11-05T06:02:37.757Z,80.03
2018-11-05T06:05:07.276Z,80.06
2018-11-05T06:07:36.408Z,80.15
2018-11-05T06:10:05.264Z,80.25
2018-11-05T06:12:33.968Z,80.48
2018-11-05T06:15:02.707Z,80.24
2018-11-05T06:17:31.748Z,80.36
2018-11-05T06:20:00.411Z,80.41
2018-11-05T06:22:29.119Z,80.55
2018-11-05T06:24:58.384Z,80.74
2018-11-05T06:27:27.108Z,80.83
2018-11-05T06:29:55.824Z,80.66
2018-11-05T06:32:24.540Z,80.80
2018-11-05T06:34:53.271Z,80.82
2018-11-05T06:37:22.259Z,81.22
2018-11-05T06:39:50.973Z,80.99
2018-11-05T06:42:19.792Z,80.83
2018-11-05T06:44:48.557Z,80.80
2018-11-05T06:47:17.217Z,80.38
2018-11-05T06:49:58.236Z,80.55
2018-11-05T06:52:26.997Z,80.84
2018-11-05T06:54:55.933Z,80.81
2018-11-05T06:57:24.651Z,80.92
2018-11-05T06:59:53.393Z,80.96
2018-11-05T07:02:22.359Z,81.62
2018-11-05T07:04:51.304Z,81.52
2018-11-05T07:07:20.300Z,81.74
2018-11-05T07:09:49.345Z,82.19
2018-11-05T07:12:17.989Z,82.36
2018-11-05T07:14:46.792Z,83.05
2018-11-05T07:17:15.504Z,83.01
2018-11-05T07:19:44.321Z,83.43
2018-11-05T07:22:13.395Z,83.48
2018-11-05T07:24:42.268Z,83.63
2018-11-05T07:27:10.999Z,83.28
2018-11-05T07:29:39.924Z,83.58
2018-11-05T07:32:08.682Z,83.48
2018-11-05T07:34:37.391Z,83.40
2018-11-05T07:37:06.096Z,83.78
2018-11-05T07:39:34.836Z,83.74
2018-11-05T07:42:03.555Z,83.50
2018-11-05T07:44:32.264Z,84.00
2018-11-05T07:47:01.007Z,83.61
2018-11-05T07:49:29.783Z,83.61
2018-11-05T07:51:58.484Z,83.89
2018-11-05T07:54:27.191Z,83.65
2018-11-05T07:56:56.058Z,83.82
2018-11-05T07:59:24.744Z,83.31
2018-11-05T08:01:53.483Z,83.06
2018-11-05T08:04:22.213Z,83.35
2018-11-05T08:06:51.209Z,83.72
2018-11-05T08:09:19.925Z,83.47
2018-11-05T08:11:48.636Z,83.61
2018-11-05T08:14:17.350Z,83.49
2018-11-05T08:16:46.058Z,83.52
2018-11-05T08:19:14.772Z,83.05
2018-11-05T08:21:43.484Z,83.77
2018-11-05T08:24:12.342Z,83.47
2018-11-05T08:26:41.040Z,83.61
2018-11-05T08:29:09.788Z,83.49
2018-11-05T08:31:38.496Z,83.67
2018-11-05T08:34:07.372Z,83.94
2018-11-05T08:36:36.950Z,83.77
2018-11-05T08:39:08.893Z,83.72
2018-11-05T08:41:37.592Z,83.68
2018-11-05T08:44:07.509Z,83.90
2018-11-05T08:46:36.471Z,83.78
2018-11-05T08:49:05.608Z,84.04
2018-11-05T08:51:34.641Z,83.75
2018-11-05T08:54:03.289Z,84.19
2018-11-05T08:56:31.994Z,83.66
2018-11-05T08:59:00.696Z,83.84
2018-11-05T09:01:33.101Z,83.42
2018-11-05T09:04:02.268Z,83.69
2018-11-05T09:06:30.971Z,83.58
2018-11-05T09:08:59.691Z,83.82
2018-11-05T09:11:29.030Z,84.01
2018-11-05T09:13:57.542Z,83.26
2018-11-05T09:16:26.549Z,83.68
2018-11-05T09:18:55.355Z,83.43
2018-11-05T09:21:24.071Z,83.10
2018-11-05T09:23:52.832Z,83.39
2018-11-05T09:26:21.560Z,83.34
2018-11-05T09:28:50.294Z,83.12
2018-11-05T09:31:19.015Z,82.87
2018-11-05T09:33:47.732Z,82.80
2018-11-05T09:36:16.740Z,83.00
2018-11-05T09:38:45.444Z,82.59
2018-11-05T09:41:14.149Z,82.91
2018-11-05T09:43:43.114Z,83.17
2018-11-05T09:46:11.858Z,82.92
2018-11-05T09:48:41.048Z,82.75
2018-11-05T09:51:10.142Z,82.80
2018-11-05T09:53:38.856Z,82.75
2018-11-05T09:56:07.604Z,82.54
2018-11-05T09:58:36.333Z,82.56
2018-11-05T10:01:06.071Z,82.75
2018-11-05T10:03:40.050Z,82.65
2018-11-05T10:06:08.549Z,82.13
2018-11-05T10:08:37.279Z,82.15
2018-11-05T10:11:06.159Z,81.88
2018-11-05T10:13:35.027Z,81.58
2018-11-05T10:16:03.733Z,81.75
2018-11-05T10:18:32.449Z,81.33
2018-11-05T10:21:01.224Z,81.53
2018-11-05T10:23:29.945Z,81.73
2018-11-05T10:25:58.661Z,81.28
2018-11-05T10:28:34.209Z,81.36
2018-11-05T10:31:02.934Z,81.41
2018-11-05T10:33:31.713Z,81.14
2018-11-05T10:36:00.386Z,81.39
2018-11-05T10:38:29.141Z,81.60
2018-11-05T10:40:57.814Z,81.43
2018-11-05T10:43:26.505Z,81.42
2018-11-05T10:45:55.231Z,81.42
2018-11-05T10:48:23.983Z,81.76
2018-11-05T10:50:52.742Z,81.12
2018-11-05T10:53:21.440Z,80.89
2018-11-05T10:55:50.161Z,80.59
2018-11-05T10:58:19.246Z,81.01
2018-11-05T11:00:53.151Z,80.53
2018-11-05T11:03:21.867Z,80.94
2018-11-05T11:05:50.613Z,80.68
2018-11-05T11:08:19.331Z,80.74
2018-11-05T11:10:48.047Z,80.69
2018-11-05T11:13:16.764Z,80.50
2018-11-05T11:15:45.497Z,80.05
2018-11-05T11:18:14.432Z,80.28
2018-11-05T11:20:43.178Z,80.03
2018-11-05T11:23:11.901Z,80.21
2018-11-05T11:25:40.684Z,80.57
2018-11-05T11:28:09.449Z,80.09
2018-11-05T11:30:38.129Z,79.86
2018-11-05T11:33:06.861Z,80.00
2018-11-05T11:35:35.567Z,79.95
2018-11-05T11:38:05.692Z,79.96
2018-11-05T11:40:34.407Z,80.53
2018-11-05T11:43:03.144Z,79.63
2018-11-05T11:45:31.945Z,80.09
2018-11-05T11:48:00.647Z,79.48
2018-11-05T11:50:29.413Z,79.15
2018-11-05T11:52:58.253Z,79.48
2018-11-05T11:55:26.883Z,79.25
2018-11-05T11:57:55.631Z,79.16
2018-11-05T12:00:25.473Z,80.08
2018-11-05T12:02:54.382Z,79.24
2018-11-05T12:05:23.324Z,79.43
2018-11-05T12:07:51.851Z,79.55
2018-11-05T12:10:22.304Z,79.17
2018-11-05T12:12:51.010Z,79.17
2018-11-05T12:15:20.678Z,79.74
2018-11-05T12:17:50.489Z,79.23
2018-11-05T12:20:20.565Z,79.32
2018-11-05T12:22:49.732Z,79.52
2018-11-05T12:25:18.451Z,79.20
2018-11-05T12:27:47.413Z,78.73
2018-11-05T12:30:19.119Z,78.89
2018-11-05T12:32:49.042Z,79.31
2018-11-05T12:35:17.737Z,78.96
2018-11-05T12:37:47.463Z,79.04
2018-11-05T12:40:17.300Z,78.62
2018-11-05T12:42:47.193Z,78.70
2018-11-05T12:45:15.912Z,78.52
2018-11-05T12:47:44.672Z,78.60
2018-11-05T12:50:15.813Z,78.05
2018-11-05T12:52:45.447Z,77.81
2018-11-05T12:55:14.180Z,78.58
2018-11-05T12:57:42.955Z,78.61
2018-11-05T13:00:15.853Z,78.41
2018-11-05T13:02:44.608Z,78.14
2018-11-05T13:05:14.009Z,78.41
2018-11-05T13:07:42.730Z,78.15
2018-11-05T13:10:12.500Z,77.72
2018-11-05T13:12:41.238Z,78.05
2018-11-05T13:15:10.728Z,78.33
2018-11-05T13:17:40.065Z,77.79
2018-11-05T13:20:17.643Z,77.69
2018-11-05T13:22:46.591Z,77.72
2018-11-05T13:25:15.343Z,78.52
2018-11-05T13:27:45.214Z,78.47
2018-11-05T13:30:14.395Z,78.09
2018-11-05T13:32:43.551Z,77.75
2018-11-05T13:35:19.786Z,77.62
2018-11-05T13:37:48.927Z,77.63
2018-11-05T13:40:18.505Z,78.00
2018-11-05T13:42:47.618Z,77.59
2018-11-05T13:45:16.707Z,77.44
2018-11-05T13:47:45.985Z,77.66
2018-11-05T13:50:14.733Z,77.65
2018-11-05T13:52:43.640Z,77.27
2018-11-05T13:55:13.413Z,77.20
2018-11-05T13:57:43.436Z,77.39
2018-11-05T14:00:15.673Z,77.25
2018-11-05T14:02:44.397Z,77.33
2018-11-05T14:05:13.365Z,77.56
2018-11-05T14:07:42.093Z,77.01
2018-11-05T14:10:13.980Z,76.44
2018-11-05T14:12:43.693Z,76.64
2018-11-05T14:15:12.321Z,76.25
2018-11-05T14:17:41.729Z,76.11
2018-11-05T14:20:11.494Z,76.33
2018-11-05T14:22:40.848Z,76.97
2018-11-05T14:25:12.051Z,76.44
2018-11-05T14:27:41.568Z,76.35
2018-11-05T14:30:11.644Z,76.27
2018-11-05T14:32:41.084Z,76.06
2018-11-05T14:35:09.822Z,76.73
2018-11-05T14:40:14.965Z,76.21
2018-11-05T14:42:43.741Z,76.51
2018-11-05T14:45:13.839Z,76.56
2018-11-05T14:47:43.499Z,76.55
2018-11-05T14:50:13.680Z,76.50
2018-11-05T14:52:42.379Z,76.52
2018-11-05T14:55:13.216Z,76.37
2018-11-05T14:57:42.568Z,76.60
2018-11-05T15:00:14.476Z,76.72
2018-11-05T15:02:43.899Z,76.00
2018-11-05T15:05:13.341Z,76.22
2018-11-05T15:07:42.877Z,76.61
2018-11-05T15:10:16.874Z,76.20
2018-11-05T15:12:45.715Z,75.89
2018-11-05T15:15:14.968Z,76.15
2018-11-05T15:17:44.248Z,75.99
2018-11-05T15:20:14.301Z,75.88
2018-11-05T15:22:42.794Z,75.98
2018-11-05T15:25:11.913Z,75.75
2018-11-05T15:27:40.918Z,76.33
2018-11-05T15:30:10.964Z,76.26
2018-11-05T15:32:40.396Z,75.44
2018-11-05T15:35:09.233Z,76.41
2018-11-05T15:37:38.754Z,75.94
2018-11-05T15:40:08.188Z,75.79
2018-11-05T15:42:36.962Z,76.09
2018-11-05T15:45:07.257Z,75.86
2018-11-05T15:47:35.996Z,75.65
2018-11-05T15:50:06.719Z,76.40
2018-11-05T15:52:37.107Z,75.87
2018-11-05T15:55:05.521Z,76.24
2018-11-05T15:57:34.500Z,76.58
2018-11-05T16:00:03.310Z,76.23
2018-11-05T16:02:32.289Z,75.52
2018-11-05T16:05:14.972Z,76.23
2018-11-05T16:07:43.729Z,76.33
2018-11-05T16:10:27.448Z,75.95
2018-11-05T16:12:56.156Z,76.02
2018-11-05T16:15:44.119Z,76.06
2018-11-05T16:18:12.881Z,74.57
2018-11-05T16:20:41.594Z,75.13
2018-11-05T16:23:10.324Z,75.47
2018-11-05T16:25:39.103Z,75.63
2018-11-05T16:28:07.771Z,75.62
2018-11-05T16:33:47.997Z,76.29
2018-11-05T16:39:27.286Z,76.11
2018-11-05T16:44:52.409Z,76.06
2018-11-05T16:47:43.000Z,76.21
2018-11-05T16:50:28.796Z,76.95
2018-11-05T16:53:11.347Z,76.71
2018-11-05T16:55:40.089Z,76.36
2018-11-05T16:58:09.084Z,76.53
2018-11-05T17:00:38.028Z,77.13
2018-11-05T17:03:07.027Z,76.51
2018-11-05T17:05:35.704Z,77.04
2018-11-05T17:08:05.629Z,77.06
2018-11-05T17:10:34.543Z,76.93
2018-11-05T17:13:05.233Z,76.81
2018-11-05T17:15:34.054Z,77.31
2018-11-05T17:18:03.023Z,77.43
2018-11-05T17:20:38.579Z,77.14
2018-11-05T17:23:07.301Z,76.80
2018-11-05T17:25:36.023Z,76.74
2018-11-05T17:28:05.235Z,77.25
2018-11-05T17:30:34.132Z,77.08
2018-11-05T17:33:03.134Z,77.45
2018-11-05T17:35:32.125Z,77.28
2018-11-05T17:38:00.857Z,76.96
2018-11-05T17:40:29.592Z,77.13
2018-11-05T17:42:58.328Z,77.00
2018-11-05T17:45:27.066Z,77.73
2018-11-05T17:47:55.781Z,77.90
2018-11-05T17:50:24.549Z,77.68
2018-11-05T17:52:53.263Z,77.62
2018-11-05T17:55:28.167Z,77.49
2018-11-05T17:57:57.045Z,77.48
2018-11-05T18:00:25.772Z,78.00
2018-11-05T18:02:54.737Z,78.35
2018-11-05T18:05:23.724Z,78.21
2018-11-05T18:07:52.458Z,78.21
2018-11-05T18:10:21.425Z,78.54
2018-11-05T18:12:50.999Z,78.33
2018-11-05T18:15:19.758Z,78.04
2018-11-05T18:17:48.488Z,78.22
2018-11-05T18:20:17.868Z,78.41
2018-11-05T18:22:46.588Z,78.88
2018-11-05T18:25:16.556Z,78.15
2018-11-05T18:27:45.397Z,78.68
2018-11-05T18:30:14.609Z,78.86
2018-11-05T18:32:43.572Z,77.97
2018-11-05T18:35:13.364Z,78.57
2018-11-05T18:37:44.324Z,78.29
2018-11-05T18:40:14.301Z,78.87
2018-11-05T18:42:43.916Z,78.99
2018-11-05T18:45:12.918Z,78.96
2018-11-05T18:47:41.989Z,79.04
2018-11-05T18:50:12.439Z,78.76
2018-11-05T18:52:41.213Z,78.91
2018-11-05T18:55:11.186Z,78.93
2018-11-05T18:57:40.122Z,78.70
2018-11-05T19:00:16.933Z,79.08
2018-11-05T19:02:46.336Z,78.81
2018-11-05T19:05:15.096Z,78.50
2018-11-05T19:07:43.837Z,78.66
2018-11-05T19:10:13.040Z,78.75
2018-11-05T19:12:41.863Z,79.12
2018-11-05T19:15:11.873Z,78.67
2018-11-05T19:17:40.792Z,79.08
2018-11-05T19:20:09.631Z,78.47
2018-11-05T19:22:39.212Z,78.52
2018-11-05T19:25:09.201Z,79.50
2018-11-05T19:27:38.509Z,79.19
2018-11-05T19:30:11.391Z,79.05
2018-11-05T19:32:40.645Z,79.10
2018-11-05T19:35:10.344Z,79.40
2018-11-05T19:37:40.396Z,79.58
2018-11-05T19:40:10.732Z,79.63
2018-11-05T19:42:40.540Z,79.48
2018-11-05T19:45:11.628Z,79.90
2018-11-05T19:47:40.620Z,79.48
2018-11-05T19:50:11.769Z,79.24
2018-11-05T19:52:41.817Z,79.61
2018-11-05T19:55:11.811Z,79.52
2018-11-05T19:57:41.692Z,79.45
2018-11-05T20:00:16.637Z,79.44
2018-11-05T20:02:45.878Z,78.97
2018-11-05T20:05:15.222Z,79.18
2018-11-05T20:07:44.600Z,78.69
2018-11-05T20:10:15.272Z,79.55
2018-11-05T20:12:45.035Z,79.44
2018-11-05T20:15:13.808Z,79.34
2018-11-05T20:17:43.647Z,79.25
2018-11-05T20:20:13.684Z,79.10
2018-11-05T20:22:42.500Z,79.35
2018-11-05T20:25:11.834Z,78.85
2018-11-05T20:27:41.207Z,79.76
2018-11-05T20:30:16.347Z,79.82
2018-11-05T20:32:46.935Z,79.35
2018-11-05T20:35:15.344Z,79.08
2018-11-05T20:37:44.060Z,79.57
2018-11-05T20:40:15.066Z,79.38
2018-11-05T20:42:45.046Z,79.21
2018-11-05T20:45:14.169Z,79.32
2018-11-05T20:47:43.170Z,79.90
2018-11-05T20:50:13.009Z,79.68
2018-11-05T20:52:41.777Z,79.87
2018-11-05T20:55:11.819Z,79.42
2018-11-05T20:57:41.043Z,80.09
2018-11-05T21:00:11.289Z,79.40
2018-11-05T21:02:41.147Z,78.95
2018-11-05T21:05:09.869Z,78.93
2018-11-05T21:07:39.091Z,79.08
2018-11-05T21:10:09.240Z,78.77
2018-11-05T21:12:38.464Z,78.66
2018-11-05T21:15:08.057Z,78.40
2018-11-05T21:17:36.792Z,78.75
2018-11-05T21:20:05.569Z,79.38
2018-11-05T21:22:34.341Z,78.73
2018-11-05T21:25:03.312Z,78.27
2018-11-05T21:27:32.034Z,78.36
2018-11-05T21:30:00.781Z,79.12
2018-11-05T21:32:29.519Z,79.22
2018-11-05T21:34:58.745Z,78.29
2018-11-05T21:37:27.659Z,78.40
2018-11-05T21:39:56.387Z,78.12
2018-11-05T21:42:25.329Z,78.05
2018-11-05T21:44:54.034Z,78.34
2018-11-05T21:47:22.770Z,78.28
2018-11-05T21:49:51.462Z,78.22
2018-11-05T21:52:20.168Z,78.71
2018-11-05T21:54:49.368Z,78.54
2018-11-05T21:57:18.157Z,78.22
2018-11-05T21:59:46.859Z,78.25
2018-11-05T22:02:15.593Z,78.51
2018-11-05T22:04:44.345Z,78.52
2018-11-05T22:07:13.051Z,78.38
2018-11-05T22:09:41.788Z,78.27
2018-11-05T22:12:10.493Z,78.17
2018-11-05T22:14:39.469Z,78.24
2018-11-05T22:17:08.205Z,78.45
2018-11-05T22:19:36.900Z,77.98
2018-11-05T22:22:05.624Z,78.23
2018-11-05T22:24:34.349Z,78.04
2018-11-05T22:27:03.445Z,78.55
2018-11-05T22:29:32.144Z,78.53
2018-11-05T22:32:00.869Z,78.23
2018-11-05T22:34:29.884Z,78.12
2018-11-05T22:36:58.611Z,78.41
2018-11-05T22:39:27.298Z,78.56
2018-11-05T22:41:56.012Z,78.96
2018-11-05T22:44:24.933Z,78.80
2018-11-05T22:46:53.674Z,78.55
2018-11-05T22:49:22.423Z,78.57
2018-11-05T22:51:51.116Z,78.73
2018-11-05T22:54:19.831Z,78.54
2018-11-05T22:56:48.523Z,79.12
2018-11-05T23:02:28.288Z,79.10
2018-11-05T23:04:57.021Z,78.65
2018-11-05T23:07:25.930Z,79.27
2018-11-05T23:09:54.656Z,79.26
2018-11-05T23:12:23.608Z,79.03
2018-11-05T23:14:59.007Z,78.92
2018-11-05T23:17:27.724Z,78.45
2018-11-05T23:19:56.435Z,78.94
2018-11-05T23:22:25.127Z,78.60
2018-11-05T23:24:53.852Z,78.70
2018-11-05T23:27:22.584Z,78.78
2018-11-05T23:29:51.307Z,78.35
2018-11-05T23:32:20.308Z,78.27
2018-11-05T23:34:49.020Z,78.67
2018-11-05T23:37:17.724Z,78.39
2018-11-05T23:39:46.699Z,78.44
2018-11-05T23:42:15.416Z,78.41
2018-11-05T23:44:44.145Z,77.89
2018-11-05T23:47:12.856Z,78.62
2018-11-05T23:49:41.562Z,78.13
2018-11-05T23:52:10.384Z,78.32
2018-11-05T23:54:39.026Z,78.33
2018-11-05T23:57:07.731Z,78.19
2018-11-05T23:59:36.448Z,78.74
